Kezdőlap
METAR-TAF:

METAR-TAF

Repülőterek :

Kairói nemzetközi repülőtér

Kairó, Egyiptom

földrajzi szélesség: 30-08N, földrajzi hosszúság: 031-24E, magasság: 64 m

Jelenlegi meteorológiai megfigyelések

A jelentés 9 perccel ezelõtt készült, 04:00 UTC
Észak-északkeleti szél 4 kt
Hőmérséklet 26°C
Páratartalom 79%
Légköri nyomás 1008 hPa
Látótávolság: 6000 m

METAR: HECA 190400Z 02004KT 6000 NSC 26/22 Q1008 NOSIG

Idő: 06:09 (04:09 UTC)

Előrejelzés

A jelentés 5 órával és 9 perccel ezelõtt készült, 23:00 UTC
Az előrejelzés 19-én 00 óra UTC és 20-én 06 óra UTC között érvényes
Északi szél 10 kt
Látótávolság 10 km, vagy több
felhőtlen 1500 m magasságban, és nincs gomolyfelhõ
19-én 00 óra UTC és 19-én 08 óra UTC között ideiglenes
Északi szél 5 kt
Látótávolság: 6000 m
Szórványos felhőzet 2500 lábon

TAF: HECA 182300Z 1900/2006 35010KT CAVOK TEMPO 1900/1908 36005KT 6000 SCT025

Meteorológiai megfigyelések és előrejelzések több, mint 4000 repülőtéren (METAR és TAF jelentéseket).

A térképen piros és sárga pontok jelzik az elérhető meteorológiai állomásokat.

Mozgassa az egeret a pont fölött, hogy megjelenjen az állomás neve.

Azután kattintson az időjárási megfigyelések és előrejelzések megtekintéséhez.

A térkép megváltoztatása: kattintson a fekete keresztel jelölt zöld gombra ráközelítéshez, a vonallal jelölt zöld gombra távolításhoz, vagy a zöld nyilakra a szomszédos térképek eléréséhez.


METAR-TAF: